首页
METAR-TAF:

METAR-TAF

机场 :

Capo Mele

Andora, 意大利

纬度: 43-57N, 经度: 008-10E, 海拔: 220米

当前天气观测

该预报发布于42分钟前的05:55 UTC
静风
温度 25°C
湿度 79%
气压 1021 hPa
能见度10公里或以上
1500米以下无云,无积雨云

METAR: LIMU 250555Z 00000KT CAVOK 25/21 Q1021 RMK SKC QUK 1 QUL 1 SE VIS MAR 30 KM VIS MIN 9999

时间: 08:37 (06:37 UTC)


TAF: 丢失

超过4000个机场的气象观测和天气预报(METAR&TAF报告)。

可查询的气象台以黄色和红色小点在地图上表示。

将鼠标移到小点上方,可查看气象台名称。

然后点击查看天气观测和预报。

如需切换地图:点击带黑十字的绿色按钮放大地图;点击带横线的绿色按钮缩小地图;或者点击绿色箭头查看邻近地区的地图。


METAR-TAF: